ENRS/RET METAR and TAF weather

Enter ICAO airport designator
Station Type Date Time Source
ENRS METAR 2018/10/19 16:20 UTC NOAA

ENRS 191620Z 21015KT 9999 SHRA FEW011 SCT022 BKN032 09/08 Q1012


Station Type Date Time Source
ENRS Decoded METAR 2018/10/19 16:20 UTC NOAA

Rost Flyplass, Norway (ENRS) 67-31N 012-06E
Oct 19, 2018 - 12:20 PM EDT / 2018.10.19 1620 UTC
Wind: from the SSW (210 degrees) at 17 MPH (15 KT):0
Visibility: greater than 7 mile(s):0
Sky conditions: mostly cloudy
Weather: rain showers
Temperature: 48 F (9 C)
Dew Point: 46 F (8 C)
Relative Humidity: 93%
Pressure (altimeter): 29.88 in. Hg (1012 hPa)
ob: ENRS 191620Z 21015KT 9999 SHRA FEW011 SCT022 BKN032 09/08 Q1012
cycle: 16

Station Type Date Time Source
ENRS TAF UTC NOAA

Error!


Example: see airport list